Latest Weather Observations for Tunnack

IDT60801

Issued at 7:01 am EDT Friday 19 December 2014 (issued every 30 minutes, with the page automatically refreshed every 10 minutes)

About weather observations | Map of weather stations | Latest weather observations for TAS | Other Formats
Station Details ID: 094195 Name: TUNNACK FIRE STATION Lat: -42.45 Lon: 147.46 Height: 461.5 m
Data from the previous 72 hours. | See also: Recent months at Tunnack
Date/Time
EDT
Temp
°C
App
Temp
°C
Dew
Point
Rel
Hum
%
Delta-T
°C
Wind Press
QNH
hPa
Press
MSL
hPa
Rain
since 9 am
mm
Dir
 
Spd
km/h
Gust
km/h
Spd
kts
Gust
kts
19/07:00am 6.6 3.8 5.1 90 0.7 WNW 9 13 5 7 1010.8 1010.2 0.8
19/06:30am 5.3 2.7 4.3 93 0.4 WNW 7 11 4 6 1010.3 1009.7 0.8
19/06:00am 4.6 2.1 3.9 95 0.3 W 6 11 3 6 1009.9 1009.4 0.6
19/05:30am 4.7 0.9 3.7 93 0.4 WSW 13 17 7 9 1009.5 1008.9 0.6
19/05:00am 5.2 1.1 4.6 96 0.3 W 15 28 8 15 1009.1 1008.5 0.6
19/04:30am 4.6 1.7 4.5 99 0.0 W 9 11 5 6 1008.7 1008.1 0.6
19/04:00am 2.8 -0.3 1.5 91 0.5 SW 7 9 4 5 1008.3 1007.7 0.6
19/03:30am 5.2 3.1 3.9 91 0.6 W 4 7 2 4 1008.3 1007.7 0.6
19/03:00am 5.5 2.3 3.2 85 1.0 WSW 9 19 5 10 1008.2 1007.6 0.6
19/02:30am 6.1 1.8 3.4 83 1.2 WSW 15 20 8 11 1007.7 1007.2 0.6
19/02:00am 6.2 2.3 3.2 81 1.3 W 13 20 7 11 1007.4 1006.8 0.6
19/01:30am 6.5 1.5 3.5 81 1.3 WSW 19 28 10 15 1007.3 1006.7 0.6
19/01:00am 6.7 0.7 3.5 80 1.4 W 24 32 13 17 1007.1 1006.5 0.6
19/12:30am 6.5 1.8 3.3 80 1.4 W 17 24 9 13 1007.3 1006.7 0.6
19/12:00am 6.6 3.0 3.2 79 1.5 WSW 11 15 6 8 1007.1 1006.5 0.6
 
Date/Time
EDT
Temp
°C
App
Temp
°C
Dew
Point
Rel
Hum
%
Delta-T
°C
Wind Press
QNH
hPa
Press
MSL
hPa
Rain
since 9 am
mm
Dir
 
Spd
km/h
Gust
km/h
Spd
kts
Gust
kts
18/11:30pm 7.2 3.3 3.3 76 1.7 WSW 13 19 7 10 1006.9 1006.3 0.6
18/11:00pm 8.0 3.0 3.7 74 1.9 W 19 26 10 14 1006.7 1006.1 0.6
18/10:30pm 8.6 4.5 4.2 74 2.0 WSW 15 22 8 12 1006.7 1006.1 0.6
18/10:00pm 9.2 4.8 4.8 74 2.0 WSW 17 32 9 17 1006.1 1005.5 0.6
18/09:30pm 9.0 5.4 4.8 75 1.9 W 13 24 7 13 1005.8 1005.1 0.6
18/09:00pm 9.8 4.5 4.8 71 2.3 W 22 46 12 25 1005.0 1004.4 0.6
18/08:30pm 10.1 4.4 4.7 69 2.5 W 24 35 13 19 1004.5 1003.9 0.6
18/08:00pm 11.6 4.8 5.3 65 3.0 W 30 43 16 23 1003.9 1003.2 0.6
18/07:30pm 12.3 7.6 5.9 65 3.1 W 20 30 11 16 1003.1 1002.5 0.6
18/07:00pm 13.2 8.1 6.1 62 3.5 W 22 35 12 19 1002.6 1002.0 0.6
18/06:30pm 12.3 7.3 6.4 67 2.9 W 22 32 12 17 1002.5 1001.9 0.6
18/06:00pm 13.6 9.2 8.9 73 2.4 W 22 39 12 21 1002.0 1001.3 0.6
18/05:30pm 11.7 7.6 8.7 82 1.5 WNW 20 28 11 15 1001.9 1001.2 0.6
18/05:00pm 10.6 7.3 9.5 93 0.6 WNW 17 26 9 14 1002.1 1001.5 0.6
18/04:30pm 9.9 5.2 9.4 97 0.3 WNW 24 33 13 18 1002.3 1001.7 0.4
18/04:16pm 10.1 4.4 8.5 90 0.8 W 28 46 15 25 1002.0 1001.3 0.2
18/04:05pm 12.8 6.0 7.5 70 2.7 NW 33 48 18 26 1001.7 1001.0 0.0
18/04:00pm 15.1 7.2 6.4 56 4.3 NW 37 48 20 26 1001.2 1000.5 0.0
18/03:58pm 15.4 7.4 5.9 53 4.7 NW 37 46 20 25 1001.2 1000.5 0.0
18/03:30pm 16.3 9.9 7.0 54 4.7 NNW 30 44 16 24 1001.0 1000.3 0.0
18/03:00pm 14.9 8.7 7.7 62 3.7 N 30 44 16 24 1001.2 1000.5 0.0
18/02:30pm 15.1 8.1 8.6 65 3.4 N 35 48 19 26 1001.4 1000.7 0.0
18/02:07pm 14.7 7.1 8.9 68 3.0 N 39 57 21 31 1001.5 1000.8 0.0
18/02:00pm 14.0 5.2 8.2 68 3.0 N 44 57 24 31 1001.5 1000.8 0.0
18/01:30pm 15.0 7.6 8.3 64 3.5 N 37 52 20 28 1001.7 1001.0 0.0
18/01:00pm 14.8 7.0 8.3 65 3.4 N 39 52 21 28 1002.1 1001.5 0.0
18/12:30pm 12.4 5.1 7.1 70 2.6 N 35 54 19 29 1002.7 1002.1 0.0
18/12:29pm 12.7 5.7 7.0 68 2.8 N 33 54 18 29 1002.7 1002.1 0.0
18/12:00pm 13.1 6.4 8.0 71 2.6 N 33 46 18 25 1002.9 1002.3 0.0
18/11:30am 13.2 5.8 6.8 65 3.2 N 35 52 19 28 1003.0 1002.4 0.0
18/11:22am 13.6 6.7 7.4 66 3.1 N 33 52 18 28 1002.9 1002.3 0.0
18/11:00am 12.2 5.2 6.9 70 2.6 N 33 46 18 25 1003.4 1002.7 0.0
18/10:46am 12.0 4.7 7.1 72 2.4 N 35 54 19 29 1003.3 1002.6 0.0
18/10:30am 11.9 4.6 7.2 73 2.3 N 35 48 19 26 1003.7 1003.0 0.0
18/10:00am 11.7 4.8 7.2 74 2.2 N 33 44 18 24 1003.9 1003.2 0.0
18/09:30am 10.1 3.0 6.4 78 1.8 N 33 44 18 24 1004.0 1003.4 0.0
18/09:00am 10.7 5.0 6.6 76 2.0 N 26 37 14 20 1004.2 1003.6 0.0
18/08:30am 11.4 5.1 5.7 68 2.7 N 28 39 15 21 1004.2 1003.6 0.0
18/08:00am 11.2 6.3 5.1 66 2.9 N 20 26 11 14 1004.4 1003.8 0.0
18/07:30am 7.7 4.2 3.7 76 1.8 N 11 17 6 9 1004.4 1003.8 0.0
18/07:00am 7.3 3.4 3.5 77 1.7 N 13 19 7 10 1004.3 1003.7 0.0
18/06:30am 6.7 2.9 3.9 82 1.2 N 13 19 7 10 1004.3 1003.7 0.0
18/06:00am 6.5 2.3 4.0 84 1.1 N 15 26 8 14 1004.3 1003.7 0.0
18/05:30am 5.5 2.5 4.2 91 0.6 N 9 17 5 9 1004.4 1003.8 0.0
18/05:00am 4.3 1.0 2.2 86 0.9 N 9 15 5 8 1004.2 1003.6 0.0
18/04:30am 3.8 1.3 3.7 99 0.0 N 6 11 3 6 1004.2 1003.6 0.0
18/04:00am 2.7 -0.5 0.9 88 0.7 NW 7 9 4 5 1004.3 1003.7 0.0
18/03:30am 4.1 1.9 3.1 93 0.4 NW 4 6 2 3 1004.3 1003.7 0.0
18/03:00am 3.7 1.4 3.0 95 0.3 ENE 4 7 2 4 1004.3 1003.7 0.0
18/02:30am 3.5 0.7 2.2 91 0.5 NE 6 7 3 4 1004.4 1003.8 0.0
18/02:00am 5.0 1.8 3.2 88 0.8 ESE 9 9 5 5 1004.5 1003.9 0.0
18/01:30am 5.1 2.2 2.5 83 1.1 ESE 7 9 4 5 1004.8 1004.2 0.0
18/01:00am 5.9 3.2 2.7 80 1.4 ESE 6 7 3 4 1005.2 1004.6 0.0
18/12:30am 7.0 5.4 2.5 73 1.9 CALM 0 0 0 0 1005.3 1004.7 0.0
18/12:00am 8.2 6.6 2.4 67 2.5 CALM 0 0 0 0 1005.6 1004.9 0.0
 
Date/Time
EDT
Temp
°C
App
Temp
°C
Dew
Point
Rel
Hum
%
Delta-T
°C
Wind Press
QNH
hPa
Press
MSL
hPa
Rain
since 9 am
mm
Dir
 
Spd
km/h
Gust
km/h
Spd
kts
Gust
kts
17/11:30pm 9.0 6.4 3.0 66 2.6 SW 6 6 3 3 1005.8 1005.1 0.0
17/11:00pm 9.9 6.7 3.0 62 3.1 SSW 9 9 5 5 1006.2 1005.6 0.0
17/10:30pm 10.8 8.1 3.8 62 3.2 WSW 7 13 4 7 1006.5 1005.9 0.0
17/10:00pm 11.3 9.0 4.7 64 3.1 NE 6 9 3 5 1006.4 1005.8 0.0
17/09:30pm 11.6 9.1 4.8 63 3.2 NE 7 11 4 6 1006.4 1005.8 0.0
17/09:00pm 12.0 9.5 5.0 62 3.3 NE 7 11 4 6 1006.2 1005.6 0.0
17/08:30pm 12.4 10.8 2.3 50 4.5 CALM 0 6 0 3 1006.2 1005.6 0.0
17/08:00pm 12.8 8.7 2.1 48 4.8 WSW 13 19 7 10 1006.1 1005.5 0.0
17/07:30pm 13.3 9.6 2.5 48 4.9 WSW 11 20 6 11 1005.4 1004.8 0.0
17/07:00pm 13.8 8.7 3.3 49 4.9 W 19 28 10 15 1005.0 1004.4 0.0
17/06:30pm 15.5 11.2 3.3 44 5.7 WSW 15 26 8 14 1004.6 1004.0 0.0
17/06:00pm 16.6 11.9 3.0 40 6.4 W 17 28 9 15 1004.3 1003.7 0.0
17/05:30pm 16.5 12.5 2.9 40 6.4 SW 13 26 7 14 1004.2 1003.6 0.0
17/05:00pm 16.9 11.7 3.6 41 6.3 SW 20 26 11 14 1004.3 1003.7 0.0
17/04:30pm 16.1 10.9 2.5 40 6.3 WSW 19 30 10 16 1004.5 1003.9 0.0
17/04:00pm 15.1 9.3 2.3 42 5.9 WNW 22 35 12 19 1004.5 1003.9 0.0
17/03:30pm 15.9 10.4 2.0 39 6.3 W 20 35 11 19 1004.3 1003.7 0.0
17/03:00pm 16.4 10.7 2.8 40 6.4 W 22 39 12 21 1004.4 1003.8 0.0
17/02:30pm 16.5 11.5 4.5 45 5.8 WSW 20 33 11 18 1004.3 1003.7 0.0
17/02:00pm 14.1 8.1 3.3 48 5.0 WNW 24 35 13 19 1004.3 1003.7 0.0
17/01:30pm 15.4 9.0 3.2 44 5.7 WNW 26 41 14 22 1004.3 1003.7 0.0
17/01:00pm 14.4 9.2 3.8 49 5.0 W 20 32 11 17 1004.2 1003.6 0.0
17/12:30pm 13.1 8.1 4.5 56 4.0 W 20 32 11 17 1004.2 1003.6 0.0
17/12:00pm 13.4 7.8 3.5 51 4.6 W 22 41 12 22 1003.9 1003.2 0.0
17/11:30am 11.7 4.1 2.7 54 4.0 WNW 32 44 17 24 1003.5 1002.8 0.0
17/11:24am 12.8 6.0 2.9 51 4.5 WNW 28 43 15 23 1003.4 1002.7 0.0
17/11:00am 13.2 7.3 3.8 53 4.4 W 24 39 13 21 1003.1 1002.5 0.0
17/10:30am 12.2 6.8 2.6 52 4.3 W 20 32 11 17 1002.8 1002.2 0.0
17/10:00am 10.3 4.3 3.1 61 3.2 WNW 24 43 13 23 1002.9 1002.3 0.0
17/09:30am 11.6 6.4 2.6 54 4.0 WSW 19 32 10 17 1002.6 1002.0 0.0
17/09:00am 9.3 3.8 1.7 59 3.3 W 20 33 11 18 1002.3 1001.7 0.0
17/08:30am 9.9 4.5 2.7 61 3.2 W 20 35 11 19 1001.9 1001.2 0.0
17/08:00am 8.5 3.2 3.1 69 2.4 WNW 20 35 11 19 1001.3 1000.6 0.0
17/07:30am 8.2 3.1 2.9 69 2.3 WNW 19 30 10 16 1000.5 999.9 0.0
17/07:00am 7.3 2.8 2.0 69 2.3 W 15 32 8 17 1000.0 999.3 0.0
17/06:30am 7.4 2.9 2.3 70 2.2 WSW 15 22 8 12 999.6 998.9 0.0
17/06:00am 6.6 0.4 1.9 72 2.0 W 24 35 13 19 998.4 997.8 0.0
17/05:30am 6.2 0.0 1.9 74 1.8 W 24 39 13 21 997.8 997.1 0.0
17/05:00am 6.4 0.2 1.9 73 1.9 W 24 39 13 21 997.5 996.8 0.0
17/04:30am 7.0 -0.4 2.1 71 2.1 W 30 54 16 29 996.5 995.7 0.0
17/04:24am 7.0 0.0 1.9 70 2.1 W 28 46 15 25 996.4 995.6 0.0
17/04:00am 7.0 1.2 2.5 73 1.9 W 22 35 12 19 995.9 995.2 0.0
17/03:30am 7.1 2.2 2.2 71 2.1 W 17 24 9 13 995.9 995.2 0.0
17/03:00am 7.0 2.1 2.1 71 2.1 W 17 24 9 13 995.4 994.7 0.0
17/02:30am 7.9 2.2 2.6 69 2.3 W 22 35 12 19 995.0 994.3 0.0
17/02:00am 8.2 2.7 4.0 75 1.9 W 22 37 12 20 994.8 994.1 0.0
17/01:30am 8.7 3.8 4.9 77 1.7 WNW 20 37 11 20 994.1 993.3 0.0
17/01:00am 8.5 4.1 4.9 78 1.7 W 17 30 9 16 993.6 992.9 0.0
17/12:30am 8.4 3.6 4.6 77 1.7 WNW 19 26 10 14 993.1 992.4 0.0
17/12:00am 8.6 3.7 4.2 74 2.0 W 19 30 10 16 992.8 992.1 0.0
 
Date/Time
EDT
Temp
°C
App
Temp
°C
Dew
Point
Rel
Hum
%
Delta-T
°C
Wind Press
QNH
hPa
Press
MSL
hPa
Rain
since 9 am
mm
Dir
 
Spd
km/h
Gust
km/h
Spd
kts
Gust
kts
16/11:30pm 9.0 4.0 4.6 74 2.0 WNW 20 30 11 16 992.6 991.8 0.0
16/11:00pm 9.2 4.5 5.2 76 1.9 WNW 19 30 10 16 992.3 991.5 0.0
16/10:30pm 9.8 4.5 5.2 73 2.1 WNW 22 33 12 18 991.6 990.9 0.0
16/10:00pm 10.6 5.9 6.0 73 2.2 W 20 37 11 20 990.9 990.2 0.0
16/09:31pm 11.5 4.8 5.6 67 2.8 WNW 30 48 16 26 989.9 989.1 0.0
16/09:30pm 11.4 4.3 5.7 68 2.7 WNW 32 48 17 26 989.9 989.1 0.0
16/09:00pm 12.5 4.4 5.2 61 3.5 WNW 37 61 20 33 988.3 987.5 0.0
16/08:44pm 12.9 5.2 5.3 60 3.6 WNW 35 54 19 29 987.8 987.0 0.0
16/08:30pm 13.3 5.1 5.0 57 4.0 WNW 37 52 20 28 987.6 986.8 0.0
16/08:16pm 13.5 5.3 4.6 55 4.2 NW 37 57 20 31 988.0 987.2 0.0
16/08:00pm 13.6 5.8 5.0 56 4.2 NNW 35 50 19 27 988.1 987.3 0.0
16/07:38pm 13.5 6.7 5.2 57 4.0 NW 30 48 16 26 987.3 986.5 0.0
16/07:30pm 13.0 7.5 5.9 62 3.4 NW 24 32 13 17 987.3 986.5 0.0
16/07:00pm 12.6 1.5 6.2 65 3.1 WNW 54 83 29 45 987.5 986.7 0.0
16/06:42pm 15.4 7.2 6.4 55 4.5 NW 39 89 21 48 986.6 985.8 0.0
16/06:41pm 15.9 8.4 6.3 53 4.8 NNW 35 89 19 48 986.8 986.0 0.0
16/06:40pm 16.3 9.6 8.3 59 4.2 NNW 33 69 18 37 987.1 986.4 0.0
16/06:31pm 16.4 10.3 9.8 65 3.5 NNW 32 50 17 27 986.4 985.6 0.0
16/06:30pm 16.4 10.1 9.8 65 3.5 NNW 33 50 18 27 986.3 985.5 0.0
16/06:10pm 19.3 13.0 8.9 51 5.6 NNW 32 50 17 27 985.4 984.6 0.0
16/06:00pm 19.6 12.4 10.6 56 5.0 N 39 52 21 28 985.4 984.6 0.0
16/05:38pm 18.7 13.9 11.5 63 4.0 NNW 28 48 15 26 985.2 984.3 0.0
16/05:30pm 18.6 13.6 8.0 50 5.6 NNW 24 35 13 19 985.5 984.7 0.0
16/05:27pm 18.4 13.0 8.1 51 5.4 NW 26 37 14 20 985.5 984.7 0.0
16/05:10pm 19.2 9.6 6.3 43 6.6 NW 46 82 25 44 985.1 984.2 0.0
16/05:05pm 19.1 7.5 5.9 42 6.7 NW 56 82 30 44 984.8 984.0 0.0
16/05:00pm 19.4 7.5 5.1 39 7.2 NNW 57 80 31 43 984.8 984.0 0.0
16/04:57pm 21.0 9.4 4.1 33 8.4 NNW 54 80 29 43 984.6 983.8 0.0
16/04:54pm 21.3 11.0 6.4 38 7.7 N 50 80 27 43 984.3 983.5 0.0
16/04:30pm 23.6 15.2 8.8 39 8.1 N 43 67 23 36 984.1 983.3 0.0
16/04:05pm 23.7 15.4 9.3 40 8.0 N 43 61 23 33 984.5 983.7 0.0
16/04:00pm 23.5 16.2 11.5 47 7.0 N 41 54 22 29 984.7 983.9 0.0
16/03:43pm 23.4 16.4 12.4 50 6.4 N 41 59 22 32 985.0 984.1 0.0
16/03:30pm 23.3 16.2 13.5 54 5.8 N 43 54 23 29 985.9 985.1 0.0
16/03:05pm 23.2 15.3 12.8 52 6.1 N 46 65 25 35 986.2 985.4 0.0
16/03:00pm 23.5 15.8 13.4 53 6.0 N 46 63 25 34 986.3 985.5 0.0
16/02:30pm 23.5 14.3 13.4 53 6.0 N 54 74 29 40 986.9 986.1 0.0
16/02:00pm 23.8 15.9 13.9 54 6.0 N 48 70 26 38 987.4 986.6 0.0
16/01:30pm 23.9 17.2 14.6 56 5.6 N 43 63 23 34 987.9 987.1 0.0
16/01:00pm 23.9 17.7 13.7 53 6.1 N 39 63 21 34 988.9 988.1 0.0
16/12:38pm 22.7 17.2 12.3 52 6.0 N 33 54 18 29 989.9 989.1 0.0
16/12:30pm 23.6 18.4 12.9 51 6.3 N 32 48 17 26 990.1 989.3 0.0
16/12:05pm 23.7 18.6 13.0 51 6.3 N 32 50 17 27 990.3 989.5 0.0
16/12:00pm 23.4 18.9 12.7 51 6.3 N 28 43 15 23 990.5 989.7 0.0
16/11:30am 22.2 18.7 13.5 57 5.1 N 24 32 13 17 991.2 990.5 0.0
16/11:00am 19.7 15.1 11.2 58 4.8 NNE 26 41 14 22 991.5 990.8 0.0
16/10:31am 21.2 14.9 11.2 53 5.6 NNE 35 54 19 29 992.5 991.7 0.0
16/10:30am 21.2 14.5 11.0 52 5.7 NNE 37 54 20 29 992.6 991.8 0.0
16/10:26am 22.0 16.2 11.4 51 6.0 NNE 33 54 18 29 992.6 991.8 0.0
16/10:00am 19.4 14.4 10.9 58 4.8 NNE 28 41 15 22 993.3 992.6 0.0
16/09:30am 19.3 16.0 11.6 61 4.3 N 20 32 11 17 994.3 993.5 0.0
16/09:00am 17.2 13.2 11.7 70 3.1 N 24 32 13 17 995.0 994.3 0.0
16/08:30am 16.5 13.2 11.6 73 2.7 N 20 28 11 15 995.3 994.6 0.0
16/08:00am 15.9 12.9 11.9 77 2.2 N 19 28 10 15 995.7 995.0 0.0
16/07:30am 14.5 11.3 12.0 85 1.4 N 20 32 11 17 995.9 995.2 0.0

Other Formats:

Comma delimited format used in spreadsheet applications
http://www.bom.gov.au/fwo/IDT60801/IDT60801.94960.axf

JavaScript Object Notation format (JSON) in row-major order
http://www.bom.gov.au/fwo/IDT60801/IDT60801.94960.json